sensor_id;sensor_type;location;lat;lon;timestamp;P1;durP1;ratioP1;P2;durP2;ratioP2
44197;SDS011;30157;55.512;37.764;2023-02-21T00:00:27;34.40;;;13.25;;
44197;SDS011;30157;55.512;37.764;2023-02-21T00:03:12;32.70;;;13.57;;
44197;SDS011;30157;55.512;37.764;2023-02-21T00:05:56;29.42;;;11.68;;
44197;SDS011;30157;55.512;37.764;2023-02-21T00:08:41;35.08;;;14.43;;
44197;SDS011;30157;55.512;37.764;2023-02-21T00:11:25;32.50;;;14.57;;
44197;SDS011;30157;55.512;37.764;2023-02-21T00:14:09;30.35;;;12.65;;
44197;SDS011;30157;55.512;37.764;2023-02-21T00:16:53;32.40;;;13.75;;
44197;SDS011;30157;55.512;37.764;2023-02-21T00:19:38;33.10;;;12.45;;
44197;SDS011;30157;55.512;37.764;2023-02-21T00:22:23;29.55;;;12.77;;
44197;SDS011;30157;55.512;37.764;2023-02-21T00:25:07;31.17;;;10.57;;
44197;SDS011;30157;55.512;37.764;2023-02-21T00:27:51;32.00;;;13.05;;
44197;SDS011;30157;55.512;37.764;2023-02-21T00:30:35;35.40;;;13.55;;
44197;SDS011;30157;55.512;37.764;2023-02-21T00:33:20;28.88;;;9.77;;
44197;SDS011;30157;55.512;37.764;2023-02-21T00:36:04;36.47;;;13.82;;
44197;SDS011;30157;55.512;37.764;2023-02-21T00:38:48;35.80;;;13.35;;
44197;SDS011;30157;55.512;37.764;2023-02-21T00:41:33;33.10;;;13.25;;
44197;SDS011;30157;55.512;37.764;2023-02-21T00:44:17;31.15;;;12.38;;
44197;SDS011;30157;55.512;37.764;2023-02-21T00:47:01;39.45;;;14.90;;
44197;SDS011;30157;55.512;37.764;2023-02-21T00:49:45;39.17;;;14.07;;
44197;SDS011;30157;55.512;37.764;2023-02-21T00:52:29;41.10;;;14.50;;
44197;SDS011;30157;55.512;37.764;2023-02-21T00:55:13;46.85;;;14.75;;
44197;SDS011;30157;55.512;37.764;2023-02-21T00:57:58;46.90;;;16.95;;
44197;SDS011;30157;55.512;37.764;2023-02-21T01:00:42;38.65;;;13.63;;
44197;SDS011;30157;55.512;37.764;2023-02-21T01:03:27;38.30;;;14.15;;
44197;SDS011;30157;55.512;37.764;2023-02-21T01:06:11;42.78;;;15.65;;
44197;SDS011;30157;55.512;37.764;2023-02-21T01:08:55;33.42;;;14.57;;
44197;SDS011;30157;55.512;37.764;2023-02-21T01:11:39;37.65;;;14.93;;
44197;SDS011;30157;55.512;37.764;2023-02-21T01:14:24;33.40;;;13.10;;
44197;SDS011;30157;55.512;37.764;2023-02-21T01:17:08;38.97;;;15.57;;
44197;SDS011;30157;55.512;37.764;2023-02-21T01:19:53;35.88;;;14.68;;
44197;SDS011;30157;55.512;37.764;2023-02-21T01:22:37;38.45;;;13.65;;
44197;SDS011;30157;55.512;37.764;2023-02-21T01:25:22;39.42;;;15.23;;
44197;SDS011;30157;55.512;37.764;2023-02-21T01:28:06;40.67;;;14.48;;
44197;SDS011;30157;55.512;37.764;2023-02-21T01:30:51;42.80;;;16.90;;
44197;SDS011;30157;55.512;37.764;2023-02-21T01:33:38;33.88;;;12.90;;
44197;SDS011;30157;55.512;37.764;2023-02-21T01:36:24;37.58;;;14.25;;
44197;SDS011;30157;55.512;37.764;2023-02-21T01:39:09;41.60;;;15.23;;
44197;SDS011;30157;55.512;37.764;2023-02-21T01:41:54;46.92;;;15.40;;
44197;SDS011;30157;55.512;37.764;2023-02-21T01:44:39;36.20;;;15.88;;
44197;SDS011;30157;55.512;37.764;2023-02-21T01:47:25;39.35;;;15.88;;
44197;SDS011;30157;55.512;37.764;2023-02-21T01:53:10;37.35;;;15.27;;
44197;SDS011;30157;55.512;37.764;2023-02-21T01:56:03;36.55;;;13.48;;
44197;SDS011;30157;55.512;37.764;2023-02-21T01:58:50;37.90;;;15.80;;
44197;SDS011;30157;55.512;37.764;2023-02-21T02:01:39;43.50;;;16.95;;
44197;SDS011;30157;55.512;37.764;2023-02-21T02:04:44;46.08;;;16.05;;
44197;SDS011;30157;55.512;37.764;2023-02-21T02:07:30;43.10;;;14.90;;
44197;SDS011;30157;55.512;37.764;2023-02-21T02:10:15;43.97;;;16.08;;
44197;SDS011;30157;55.512;37.764;2023-02-21T02:29:29;43.65;;;16.77;;
44197;SDS011;30157;55.512;37.764;2023-02-21T02:34:49;40.75;;;15.00;;
44197;SDS011;30157;55.512;37.764;2023-02-21T02:48:21;34.38;;;13.85;;
44197;SDS011;30157;55.512;37.764;2023-02-21T02:50:53;32.80;;;13.30;;
44197;SDS011;30157;55.512;37.764;2023-02-21T02:53:21;38.72;;;14.15;;
44197;SDS011;30157;55.512;37.764;2023-02-21T02:55:53;29.02;;;12.02;;
44197;SDS011;30157;55.512;37.764;2023-02-21T02:58:24;33.88;;;13.02;;
44197;SDS011;30157;55.512;37.764;2023-02-21T03:01:15;33.85;;;13.00;;
44197;SDS011;30157;55.512;37.764;2023-02-21T03:06:39;36.58;;;13.70;;
44197;SDS011;30157;55.512;37.764;2023-02-21T03:09:42;35.30;;;14.90;;
44197;SDS011;30157;55.512;37.764;2023-02-21T03:12:43;36.13;;;14.93;;
44197;SDS011;30157;55.512;37.764;2023-02-21T03:15:23;37.50;;;14.32;;
44197;SDS011;30157;55.512;37.764;2023-02-21T03:17:57;38.15;;;14.50;;
44197;SDS011;30157;55.512;37.764;2023-02-21T03:20:28;28.83;;;10.80;;
44197;SDS011;30157;55.512;37.764;2023-02-21T03:22:57;25.92;;;10.90;;
44197;SDS011;30157;55.512;37.764;2023-02-21T03:25:27;42.58;;;15.43;;
44197;SDS011;30157;55.512;37.764;2023-02-21T03:27:59;46.75;;;15.15;;
44197;SDS011;30157;55.512;37.764;2023-02-21T03:30:32;36.40;;;13.25;;
44197;SDS011;30157;55.512;37.764;2023-02-21T03:32:58;40.13;;;14.50;;
44197;SDS011;30157;55.512;37.764;2023-02-21T03:35:27;34.03;;;13.20;;
44197;SDS011;30157;55.512;37.764;2023-02-21T03:37:54;37.03;;;14.30;;
44197;SDS011;30157;55.512;37.764;2023-02-21T03:40:31;38.58;;;14.27;;
44197;SDS011;30157;55.512;37.764;2023-02-21T03:43:00;32.75;;;13.38;;
44197;SDS011;30157;55.512;37.764;2023-02-21T03:45:32;39.88;;;16.20;;
44197;SDS011;30157;55.512;37.764;2023-02-21T03:48:11;39.95;;;15.90;;
44197;SDS011;30157;55.512;37.764;2023-02-21T03:50:39;38.42;;;16.67;;
44197;SDS011;30157;55.512;37.764;2023-02-21T03:53:05;43.63;;;15.57;;
44197;SDS011;30157;55.512;37.764;2023-02-21T03:55:31;37.25;;;15.32;;
44197;SDS011;30157;55.512;37.764;2023-02-21T03:58:00;36.17;;;13.35;;
44197;SDS011;30157;55.512;37.764;2023-02-21T04:00:27;42.03;;;14.55;;
44197;SDS011;30157;55.512;37.764;2023-02-21T04:02:54;44.65;;;14.90;;
44197;SDS011;30157;55.512;37.764;2023-02-21T04:05:30;41.85;;;15.10;;
44197;SDS011;30157;55.512;37.764;2023-02-21T04:07:56;41.25;;;17.13;;
44197;SDS011;30157;55.512;37.764;2023-02-21T04:10:22;39.58;;;14.75;;
44197;SDS011;30157;55.512;37.764;2023-02-21T04:12:48;35.78;;;14.68;;
44197;SDS011;30157;55.512;37.764;2023-02-21T04:15:14;36.83;;;14.68;;
44197;SDS011;30157;55.512;37.764;2023-02-21T04:17:40;45.40;;;16.83;;
44197;SDS011;30157;55.512;37.764;2023-02-21T04:20:07;49.00;;;16.13;;
44197;SDS011;30157;55.512;37.764;2023-02-21T04:22:37;37.63;;;15.98;;
44197;SDS011;30157;55.512;37.764;2023-02-21T04:25:05;38.97;;;16.17;;
44197;SDS011;30157;55.512;37.764;2023-02-21T04:27:40;38.55;;;15.30;;
44197;SDS011;30157;55.512;37.764;2023-02-21T04:30:05;38.50;;;12.57;;
44197;SDS011;30157;55.512;37.764;2023-02-21T04:32:32;43.28;;;16.08;;
44197;SDS011;30157;55.512;37.764;2023-02-21T04:35:03;35.78;;;14.23;;
44197;SDS011;30157;55.512;37.764;2023-02-21T04:37:29;39.10;;;15.02;;
44197;SDS011;30157;55.512;37.764;2023-02-21T04:39:56;33.00;;;14.45;;
44197;SDS011;30157;55.512;37.764;2023-02-21T04:42:23;33.75;;;14.48;;
44197;SDS011;30157;55.512;37.764;2023-02-21T04:44:49;33.72;;;13.68;;
44197;SDS011;30157;55.512;37.764;2023-02-21T04:47:14;39.03;;;12.77;;
44197;SDS011;30157;55.512;37.764;2023-02-21T04:49:40;40.75;;;14.38;;
44197;SDS011;30157;55.512;37.764;2023-02-21T04:52:05;32.17;;;11.68;;
44197;SDS011;30157;55.512;37.764;2023-02-21T04:54:31;34.58;;;12.95;;
44197;SDS011;30157;55.512;37.764;2023-02-21T04:56:57;40.30;;;14.98;;
44197;SDS011;30157;55.512;37.764;2023-02-21T04:59:22;33.10;;;11.48;;
44197;SDS011;30157;55.512;37.764;2023-02-21T05:01:48;33.28;;;15.10;;
44197;SDS011;30157;55.512;37.764;2023-02-21T05:04:13;34.30;;;14.45;;
44197;SDS011;30157;55.512;37.764;2023-02-21T05:06:39;34.55;;;12.77;;
44197;SDS011;30157;55.512;37.764;2023-02-21T05:09:05;22.67;;;10.15;;
44197;SDS011;30157;55.512;37.764;2023-02-21T05:11:31;21.88;;;9.60;;
44197;SDS011;30157;55.512;37.764;2023-02-21T05:14:01;26.52;;;10.88;;
44197;SDS011;30157;55.512;37.764;2023-02-21T05:16:27;36.15;;;11.57;;
44197;SDS011;30157;55.512;37.764;2023-02-21T05:18:53;18.75;;;7.22;;
44197;SDS011;30157;55.512;37.764;2023-02-21T05:21:19;31.75;;;11.40;;
44197;SDS011;30157;55.512;37.764;2023-02-21T05:23:45;31.77;;;11.70;;
44197;SDS011;30157;55.512;37.764;2023-02-21T05:28:46;24.77;;;10.77;;
44197;SDS011;30157;55.512;37.764;2023-02-21T05:31:12;35.95;;;12.52;;
44197;SDS011;30157;55.512;37.764;2023-02-21T05:33:38;27.65;;;10.50;;
44197;SDS011;30157;55.512;37.764;2023-02-21T05:36:03;38.15;;;12.90;;
44197;SDS011;30157;55.512;37.764;2023-02-21T05:38:29;24.40;;;9.70;;
44197;SDS011;30157;55.512;37.764;2023-02-21T05:40:55;30.25;;;12.57;;
44197;SDS011;30157;55.512;37.764;2023-02-21T05:43:21;27.17;;;11.40;;
44197;SDS011;30157;55.512;37.764;2023-02-21T05:45:47;38.80;;;12.30;;
44197;SDS011;30157;55.512;37.764;2023-02-21T05:48:13;32.00;;;12.18;;
44197;SDS011;30157;55.512;37.764;2023-02-21T05:50:39;37.33;;;12.70;;
44197;SDS011;30157;55.512;37.764;2023-02-21T05:53:05;29.38;;;11.88;;
44197;SDS011;30157;55.512;37.764;2023-02-21T05:55:31;33.38;;;12.20;;
44197;SDS011;30157;55.512;37.764;2023-02-21T05:57:56;30.52;;;12.68;;
44197;SDS011;30157;55.512;37.764;2023-02-21T06:00:24;21.35;;;8.68;;
44197;SDS011;30157;55.512;37.764;2023-02-21T06:02:52;22.90;;;10.38;;
44197;SDS011;30157;55.512;37.764;2023-02-21T06:05:18;37.38;;;13.55;;
44197;SDS011;30157;55.512;37.764;2023-02-21T06:07:45;36.72;;;12.45;;
44197;SDS011;30157;55.512;37.764;2023-02-21T06:10:13;26.48;;;9.52;;
44197;SDS011;30157;55.512;37.764;2023-02-21T06:12:39;33.58;;;12.30;;
44197;SDS011;30157;55.512;37.764;2023-02-21T06:15:05;34.45;;;14.10;;
44197;SDS011;30157;55.512;37.764;2023-02-21T06:17:32;38.72;;;13.52;;
44197;SDS011;30157;55.512;37.764;2023-02-21T06:19:58;27.65;;;10.80;;
44197;SDS011;30157;55.512;37.764;2023-02-21T06:22:24;29.42;;;11.13;;
44197;SDS011;30157;55.512;37.764;2023-02-21T06:24:49;37.47;;;14.00;;
44197;SDS011;30157;55.512;37.764;2023-02-21T06:27:15;38.42;;;15.13;;
44197;SDS011;30157;55.512;37.764;2023-02-21T06:29:41;27.95;;;13.00;;
44197;SDS011;30157;55.512;37.764;2023-02-21T06:32:06;34.70;;;15.15;;
44197;SDS011;30157;55.512;37.764;2023-02-21T06:34:32;34.47;;;13.55;;
44197;SDS011;30157;55.512;37.764;2023-02-21T06:36:58;39.88;;;15.95;;
44197;SDS011;30157;55.512;37.764;2023-02-21T06:39:23;42.85;;;16.33;;
44197;SDS011;30157;55.512;37.764;2023-02-21T06:41:49;34.47;;;12.57;;
44197;SDS011;30157;55.512;37.764;2023-02-21T06:44:15;35.67;;;14.32;;
44197;SDS011;30157;55.512;37.764;2023-02-21T06:46:42;36.72;;;14.10;;
44197;SDS011;30157;55.512;37.764;2023-02-21T06:49:08;36.30;;;14.63;;
44197;SDS011;30157;55.512;37.764;2023-02-21T06:51:34;35.30;;;14.50;;
44197;SDS011;30157;55.512;37.764;2023-02-21T06:54:02;37.95;;;15.95;;
44197;SDS011;30157;55.512;37.764;2023-02-21T06:56:31;37.13;;;15.27;;
44197;SDS011;30157;55.512;37.764;2023-02-21T06:58:58;33.65;;;15.10;;
44197;SDS011;30157;55.512;37.764;2023-02-21T07:01:24;37.80;;;14.73;;
44197;SDS011;30157;55.512;37.764;2023-02-21T07:03:55;34.60;;;15.35;;
44197;SDS011;30157;55.512;37.764;2023-02-21T07:06:22;30.92;;;13.07;;
44197;SDS011;30157;55.512;37.764;2023-02-21T07:08:48;37.92;;;16.83;;
44197;SDS011;30157;55.512;37.764;2023-02-21T07:11:15;28.85;;;13.35;;
44197;SDS011;30157;55.512;37.764;2023-02-21T07:13:49;33.63;;;15.48;;
44197;SDS011;30157;55.512;37.764;2023-02-21T07:16:16;32.70;;;14.40;;
44197;SDS011;30157;55.512;37.764;2023-02-21T07:18:43;33.95;;;13.40;;
44197;SDS011;30157;55.512;37.764;2023-02-21T07:21:09;32.67;;;13.60;;
44197;SDS011;30157;55.512;37.764;2023-02-21T07:23:35;42.17;;;15.57;;
44197;SDS011;30157;55.512;37.764;2023-02-21T07:26:01;35.03;;;13.70;;
44197;SDS011;30157;55.512;37.764;2023-02-21T07:28:27;34.63;;;14.95;;
44197;SDS011;30157;55.512;37.764;2023-02-21T07:30:52;34.97;;;14.73;;
44197;SDS011;30157;55.512;37.764;2023-02-21T07:33:18;34.00;;;14.65;;
44197;SDS011;30157;55.512;37.764;2023-02-21T07:35:44;31.27;;;14.32;;
44197;SDS011;30157;55.512;37.764;2023-02-21T07:38:18;33.80;;;15.70;;
44197;SDS011;30157;55.512;37.764;2023-02-21T07:40:47;36.80;;;15.32;;
44197;SDS011;30157;55.512;37.764;2023-02-21T07:43:13;38.03;;;16.58;;
44197;SDS011;30157;55.512;37.764;2023-02-21T07:45:39;33.75;;;15.20;;
44197;SDS011;30157;55.512;37.764;2023-02-21T07:48:04;33.28;;;15.48;;
44197;SDS011;30157;55.512;37.764;2023-02-21T07:50:30;33.47;;;15.45;;
44197;SDS011;30157;55.512;37.764;2023-02-21T07:52:56;35.03;;;15.30;;
44197;SDS011;30157;55.512;37.764;2023-02-21T07:55:24;36.08;;;16.52;;
44197;SDS011;30157;55.512;37.764;2023-02-21T07:57:50;37.42;;;16.95;;
44197;SDS011;30157;55.512;37.764;2023-02-21T08:00:16;38.65;;;17.55;;
44197;SDS011;30157;55.512;37.764;2023-02-21T08:02:48;34.97;;;16.73;;
44197;SDS011;30157;55.512;37.764;2023-02-21T08:05:13;35.75;;;16.25;;
44197;SDS011;30157;55.512;37.764;2023-02-21T08:07:40;31.08;;;14.82;;
44197;SDS011;30157;55.512;37.764;2023-02-21T08:10:05;33.70;;;15.60;;
44197;SDS011;30157;55.512;37.764;2023-02-21T08:12:31;34.60;;;16.45;;
44197;SDS011;30157;55.512;37.764;2023-02-21T08:14:57;32.00;;;15.88;;
44197;SDS011;30157;55.512;37.764;2023-02-21T08:17:22;33.97;;;14.48;;
44197;SDS011;30157;55.512;37.764;2023-02-21T08:19:48;30.92;;;15.18;;
44197;SDS011;30157;55.512;37.764;2023-02-21T08:22:14;33.70;;;15.75;;
44197;SDS011;30157;55.512;37.764;2023-02-21T08:24:39;30.77;;;15.00;;
44197;SDS011;30157;55.512;37.764;2023-02-21T08:27:05;34.75;;;15.48;;
44197;SDS011;30157;55.512;37.764;2023-02-21T08:29:30;30.83;;;15.75;;
44197;SDS011;30157;55.512;37.764;2023-02-21T08:31:56;31.13;;;15.25;;
44197;SDS011;30157;55.512;37.764;2023-02-21T08:34:22;28.75;;;14.18;;
44197;SDS011;30157;55.512;37.764;2023-02-21T08:36:49;34.13;;;15.02;;
44197;SDS011;30157;55.512;37.764;2023-02-21T08:39:15;29.27;;;14.25;;
44197;SDS011;30157;55.512;37.764;2023-02-21T08:41:44;31.73;;;13.80;;
44197;SDS011;30157;55.512;37.764;2023-02-21T08:44:14;30.75;;;14.40;;
44197;SDS011;30157;55.512;37.764;2023-02-21T08:46:41;29.63;;;13.82;;
44197;SDS011;30157;55.512;37.764;2023-02-21T08:49:07;27.70;;;14.40;;
44197;SDS011;30157;55.512;37.764;2023-02-21T08:51:33;29.92;;;13.95;;
44197;SDS011;30157;55.512;37.764;2023-02-21T08:53:59;29.77;;;13.80;;
44197;SDS011;30157;55.512;37.764;2023-02-21T08:56:25;27.08;;;12.73;;
44197;SDS011;30157;55.512;37.764;2023-02-21T08:58:52;25.63;;;12.88;;
44197;SDS011;30157;55.512;37.764;2023-02-21T09:01:23;28.58;;;12.73;;
44197;SDS011;30157;55.512;37.764;2023-02-21T09:03:56;27.77;;;13.23;;
44197;SDS011;30157;55.512;37.764;2023-02-21T09:06:22;24.95;;;11.30;;
44197;SDS011;30157;55.512;37.764;2023-02-21T09:08:47;23.63;;;12.02;;
44197;SDS011;30157;55.512;37.764;2023-02-21T09:11:13;23.90;;;11.52;;
44197;SDS011;30157;55.512;37.764;2023-02-21T09:13:39;24.52;;;10.50;;
44197;SDS011;30157;55.512;37.764;2023-02-21T09:16:05;22.60;;;10.07;;
44197;SDS011;30157;55.512;37.764;2023-02-21T09:18:31;22.52;;;11.63;;
44197;SDS011;30157;55.512;37.764;2023-02-21T09:20:57;21.73;;;10.52;;
44197;SDS011;30157;55.512;37.764;2023-02-21T09:23:24;22.33;;;9.95;;
44197;SDS011;30157;55.512;37.764;2023-02-21T09:25:53;24.15;;;11.43;;
44197;SDS011;30157;55.512;37.764;2023-02-21T09:28:19;25.05;;;12.02;;
44197;SDS011;30157;55.512;37.764;2023-02-21T09:30:46;27.10;;;12.82;;
44197;SDS011;30157;55.512;37.764;2023-02-21T09:33:12;24.23;;;12.35;;
44197;SDS011;30157;55.512;37.764;2023-02-21T09:35:39;24.75;;;12.57;;
44197;SDS011;30157;55.512;37.764;2023-02-21T09:38:05;28.85;;;13.27;;
44197;SDS011;30157;55.512;37.764;2023-02-21T09:40:38;25.38;;;12.93;;
44197;SDS011;30157;55.512;37.764;2023-02-21T09:43:06;26.88;;;12.98;;
44197;SDS011;30157;55.512;37.764;2023-02-21T09:45:36;25.45;;;12.32;;
44197;SDS011;30157;55.512;37.764;2023-02-21T09:48:13;25.58;;;13.27;;
44197;SDS011;30157;55.512;37.764;2023-02-21T09:50:45;29.45;;;12.45;;
44197;SDS011;30157;55.512;37.764;2023-02-21T09:53:25;22.77;;;11.43;;
44197;SDS011;30157;55.512;37.764;2023-02-21T09:55:54;22.83;;;9.95;;
44197;SDS011;30157;55.512;37.764;2023-02-21T09:58:24;21.15;;;10.38;;
44197;SDS011;30157;55.512;37.764;2023-02-21T10:00:50;23.10;;;10.60;;
44197;SDS011;30157;55.512;37.764;2023-02-21T10:06:09;21.67;;;11.52;;
44197;SDS011;30157;55.512;37.764;2023-02-21T10:16:52;22.35;;;11.05;;
44197;SDS011;30157;55.512;37.764;2023-02-21T10:19:35;26.23;;;11.15;;
44197;SDS011;30157;55.512;37.764;2023-02-21T10:22:18;23.15;;;10.93;;
44197;SDS011;30157;55.512;37.764;2023-02-21T10:24:48;20.67;;;10.15;;
44197;SDS011;30157;55.512;37.764;2023-02-21T10:27:16;24.23;;;10.90;;
44197;SDS011;30157;55.512;37.764;2023-02-21T10:32:34;22.13;;;10.25;;
44197;SDS011;30157;55.512;37.764;2023-02-21T10:35:01;23.55;;;10.63;;
44197;SDS011;30157;55.512;37.764;2023-02-21T10:37:38;22.83;;;10.60;;
44197;SDS011;30157;55.512;37.764;2023-02-21T10:42:42;23.27;;;10.40;;
44197;SDS011;30157;55.512;37.764;2023-02-21T10:45:13;29.23;;;10.23;;
44197;SDS011;30157;55.512;37.764;2023-02-21T10:53:08;24.80;;;9.07;;
44197;SDS011;30157;55.512;37.764;2023-02-21T10:56:05;23.02;;;9.77;;
44197;SDS011;30157;55.512;37.764;2023-02-21T10:58:31;22.58;;;9.48;;
44197;SDS011;30157;55.512;37.764;2023-02-21T11:00:56;27.73;;;11.30;;
44197;SDS011;30157;55.512;37.764;2023-02-21T11:03:36;21.02;;;7.88;;
44197;SDS011;30157;55.512;37.764;2023-02-21T11:06:09;23.73;;;11.00;;
44197;SDS011;30157;55.512;37.764;2023-02-21T11:14:42;28.05;;;10.90;;
44197;SDS011;30157;55.512;37.764;2023-02-21T11:17:31;25.42;;;11.57;;
44197;SDS011;30157;55.512;37.764;2023-02-21T11:20:02;21.67;;;9.52;;
44197;SDS011;30157;55.512;37.764;2023-02-21T11:25:20;27.08;;;10.77;;
44197;SDS011;30157;55.512;37.764;2023-02-21T11:30:38;27.58;;;12.02;;
44197;SDS011;30157;55.512;37.764;2023-02-21T11:33:21;26.70;;;11.07;;
44197;SDS011;30157;55.512;37.764;2023-02-21T11:35:49;15.65;;;8.07;;
44197;SDS011;30157;55.512;37.764;2023-02-21T11:38:29;24.50;;;10.23;;
44197;SDS011;30157;55.512;37.764;2023-02-21T11:40:55;18.95;;;9.15;;
44197;SDS011;30157;55.512;37.764;2023-02-21T11:48:31;24.13;;;10.10;;
44197;SDS011;30157;55.512;37.764;2023-02-21T11:51:45;24.27;;;9.48;;
44197;SDS011;30157;55.512;37.764;2023-02-21T11:54:06;27.58;;;12.07;;
44197;SDS011;30157;55.512;37.764;2023-02-21T11:56:50;18.00;;;8.13;;
44197;SDS011;30157;55.512;37.764;2023-02-21T12:04:38;25.40;;;9.80;;
44197;SDS011;30157;55.512;37.764;2023-02-21T12:07:22;21.92;;;8.95;;
44197;SDS011;30157;55.512;37.764;2023-02-21T12:10:00;24.38;;;10.48;;
44197;SDS011;30157;55.512;37.764;2023-02-21T12:23:57;26.42;;;11.88;;
44197;SDS011;30157;55.512;37.764;2023-02-21T12:39:43;26.92;;;11.40;;
44197;SDS011;30157;55.512;37.764;2023-02-21T12:50:15;31.58;;;13.73;;
44197;SDS011;30157;55.512;37.764;2023-02-21T12:55:35;31.45;;;13.02;;
44197;SDS011;30157;55.512;37.764;2023-02-21T13:01:18;25.02;;;12.10;;
44197;SDS011;30157;55.512;37.764;2023-02-21T13:06:21;29.00;;;12.68;;
44197;SDS011;30157;55.512;37.764;2023-02-21T13:11:59;21.67;;;8.13;;
44197;SDS011;30157;55.512;37.764;2023-02-21T13:14:53;26.55;;;10.48;;
44197;SDS011;30157;55.512;37.764;2023-02-21T13:17:22;24.42;;;9.23;;
44197;SDS011;30157;55.512;37.764;2023-02-21T13:28:29;24.35;;;10.02;;
44197;SDS011;30157;55.512;37.764;2023-02-21T13:31:01;29.10;;;12.30;;
44197;SDS011;30157;55.512;37.764;2023-02-21T13:33:34;30.65;;;11.88;;
44197;SDS011;30157;55.512;37.764;2023-02-21T13:36:13;27.40;;;10.80;;
44197;SDS011;30157;55.512;37.764;2023-02-21T13:41:34;25.88;;;10.52;;
44197;SDS011;30157;55.512;37.764;2023-02-21T13:44:07;25.67;;;9.65;;
44197;SDS011;30157;55.512;37.764;2023-02-21T13:57:48;23.90;;;10.13;;
44197;SDS011;30157;55.512;37.764;2023-02-21T14:02:59;28.10;;;10.88;;
44197;SDS011;30157;55.512;37.764;2023-02-21T14:10:42;25.33;;;10.38;;
44197;SDS011;30157;55.512;37.764;2023-02-21T14:18:43;27.65;;;9.75;;
44197;SDS011;30157;55.512;37.764;2023-02-21T14:23:59;27.50;;;11.07;;
44197;SDS011;30157;55.512;37.764;2023-02-21T14:31:48;19.98;;;9.15;;
44197;SDS011;30157;55.512;37.764;2023-02-21T14:34:25;28.58;;;11.93;;
44197;SDS011;30157;55.512;37.764;2023-02-21T14:36:59;25.85;;;11.77;;
44197;SDS011;30157;55.512;37.764;2023-02-21T14:39:38;26.50;;;9.80;;
44197;SDS011;30157;55.512;37.764;2023-02-21T14:47:40;24.73;;;10.17;;
44197;SDS011;30157;55.512;37.764;2023-02-21T15:04:11;25.38;;;9.98;;
44197;SDS011;30157;55.512;37.764;2023-02-21T15:06:44;23.50;;;9.68;;
44197;SDS011;30157;55.512;37.764;2023-02-21T15:09:20;24.70;;;10.25;;
44197;SDS011;30157;55.512;37.764;2023-02-21T15:11:46;13.70;;;6.30;;
44197;SDS011;30157;55.512;37.764;2023-02-21T15:14:14;21.20;;;8.45;;
44197;SDS011;30157;55.512;37.764;2023-02-21T15:16:47;27.48;;;10.57;;
44197;SDS011;30157;55.512;37.764;2023-02-21T15:19:20;27.58;;;10.55;;
44197;SDS011;30157;55.512;37.764;2023-02-21T15:22:13;21.13;;;9.82;;
44197;SDS011;30157;55.512;37.764;2023-02-21T15:27:37;28.95;;;9.98;;
44197;SDS011;30157;55.512;37.764;2023-02-21T15:32:57;26.38;;;10.15;;
44197;SDS011;30157;55.512;37.764;2023-02-21T15:35:25;24.42;;;9.73;;
44197;SDS011;30157;55.512;37.764;2023-02-21T15:37:56;22.17;;;8.95;;
44197;SDS011;30157;55.512;37.764;2023-02-21T15:40:24;19.08;;;8.93;;
44197;SDS011;30157;55.512;37.764;2023-02-21T15:42:52;21.08;;;9.85;;
44197;SDS011;30157;55.512;37.764;2023-02-21T15:45:30;23.05;;;10.18;;
44197;SDS011;30157;55.512;37.764;2023-02-21T15:47:59;15.13;;;7.68;;
44197;SDS011;30157;55.512;37.764;2023-02-21T15:50:29;15.85;;;6.85;;
44197;SDS011;30157;55.512;37.764;2023-02-21T15:55:44;25.85;;;9.07;;
44197;SDS011;30157;55.512;37.764;2023-02-21T15:58:14;23.95;;;9.23;;
44197;SDS011;30157;55.512;37.764;2023-02-21T16:00:41;19.77;;;8.27;;
44197;SDS011;30157;55.512;37.764;2023-02-21T16:03:25;18.67;;;8.38;;
44197;SDS011;30157;55.512;37.764;2023-02-21T16:06:16;23.00;;;9.13;;
44197;SDS011;30157;55.512;37.764;2023-02-21T16:09:44;27.17;;;10.13;;
44197;SDS011;30157;55.512;37.764;2023-02-21T16:14:42;27.88;;;11.15;;
44197;SDS011;30157;55.512;37.764;2023-02-21T16:19:43;15.23;;;6.97;;
44197;SDS011;30157;55.512;37.764;2023-02-21T16:24:48;31.67;;;13.38;;
44197;SDS011;30157;55.512;37.764;2023-02-21T16:27:15;31.23;;;13.20;;
44197;SDS011;30157;55.512;37.764;2023-02-21T16:29:42;38.13;;;14.25;;
44197;SDS011;30157;55.512;37.764;2023-02-21T16:32:16;27.30;;;11.43;;
44197;SDS011;30157;55.512;37.764;2023-02-21T16:34:43;27.35;;;12.07;;
44197;SDS011;30157;55.512;37.764;2023-02-21T16:37:10;30.27;;;12.52;;
44197;SDS011;30157;55.512;37.764;2023-02-21T16:39:38;32.38;;;15.35;;
44197;SDS011;30157;55.512;37.764;2023-02-21T16:42:05;30.05;;;13.13;;
44197;SDS011;30157;55.512;37.764;2023-02-21T16:44:31;30.83;;;11.50;;
44197;SDS011;30157;55.512;37.764;2023-02-21T16:46:57;26.75;;;10.95;;
44197;SDS011;30157;55.512;37.764;2023-02-21T16:49:23;25.77;;;10.27;;
44197;SDS011;30157;55.512;37.764;2023-02-21T16:51:49;24.50;;;10.48;;
44197;SDS011;30157;55.512;37.764;2023-02-21T16:54:15;18.63;;;7.70;;
44197;SDS011;30157;55.512;37.764;2023-02-21T16:56:42;26.25;;;10.88;;
44197;SDS011;30157;55.512;37.764;2023-02-21T16:59:14;30.52;;;10.65;;
44197;SDS011;30157;55.512;37.764;2023-02-21T17:01:42;21.83;;;10.35;;
44197;SDS011;30157;55.512;37.764;2023-02-21T17:04:41;23.17;;;7.68;;
44197;SDS011;30157;55.512;37.764;2023-02-21T17:07:02;25.55;;;9.68;;
44197;SDS011;30157;55.512;37.764;2023-02-21T17:09:30;38.40;;;13.35;;
44197;SDS011;30157;55.512;37.764;2023-02-21T17:12:04;32.78;;;12.57;;
44197;SDS011;30157;55.512;37.764;2023-02-21T17:14:31;30.85;;;11.77;;
44197;SDS011;30157;55.512;37.764;2023-02-21T17:16:57;27.30;;;10.60;;
44197;SDS011;30157;55.512;37.764;2023-02-21T17:19:23;25.48;;;9.93;;
44197;SDS011;30157;55.512;37.764;2023-02-21T17:21:51;18.08;;;7.55;;
44197;SDS011;30157;55.512;37.764;2023-02-21T17:24:17;28.38;;;11.05;;
44197;SDS011;30157;55.512;37.764;2023-02-21T17:26:43;25.15;;;10.30;;
44197;SDS011;30157;55.512;37.764;2023-02-21T17:29:09;25.60;;;9.15;;
44197;SDS011;30157;55.512;37.764;2023-02-21T17:31:36;28.00;;;9.05;;
44197;SDS011;30157;55.512;37.764;2023-02-21T17:34:02;25.10;;;8.80;;
44197;SDS011;30157;55.512;37.764;2023-02-21T17:36:28;15.07;;;6.22;;
44197;SDS011;30157;55.512;37.764;2023-02-21T17:38:54;16.35;;;6.82;;
44197;SDS011;30157;55.512;37.764;2023-02-21T17:41:21;16.25;;;6.90;;
44197;SDS011;30157;55.512;37.764;2023-02-21T17:43:47;16.50;;;5.68;;
44197;SDS011;30157;55.512;37.764;2023-02-21T17:46:14;23.23;;;9.38;;
44197;SDS011;30157;55.512;37.764;2023-02-21T17:48:41;35.38;;;11.18;;
44197;SDS011;30157;55.512;37.764;2023-02-21T17:51:08;31.08;;;11.68;;
44197;SDS011;30157;55.512;37.764;2023-02-21T17:53:34;32.58;;;12.80;;
44197;SDS011;30157;55.512;37.764;2023-02-21T17:56:00;25.77;;;11.27;;
44197;SDS011;30157;55.512;37.764;2023-02-21T17:58:26;24.58;;;9.27;;
44197;SDS011;30157;55.512;37.764;2023-02-21T18:00:54;22.50;;;10.43;;
44197;SDS011;30157;55.512;37.764;2023-02-21T18:03:21;24.77;;;10.48;;